createdAt,value
2023-01-24T00:01:24.961Z,9.83
2023-01-24T00:03:52.685Z,8.80
2023-01-24T00:06:20.489Z,9.23
2023-01-24T00:08:48.321Z,8.40
2023-01-24T00:11:16.295Z,9.80
2023-01-24T00:13:45.451Z,8.60
2023-01-24T00:16:18.805Z,9.80
2023-01-24T00:18:46.911Z,8.33
2023-01-24T00:21:16.086Z,9.27
2023-01-24T00:23:45.025Z,9.37
2023-01-24T00:26:13.532Z,9.23
2023-01-24T00:28:41.533Z,8.33
2023-01-24T00:31:11.161Z,8.23
2023-01-24T00:33:39.088Z,9.47
2023-01-24T00:36:07.700Z,9.00
2023-01-24T00:38:35.402Z,9.70
2023-01-24T00:41:03.332Z,8.30
2023-01-24T00:43:31.335Z,9.00
2023-01-24T00:46:00.242Z,9.17
2023-01-24T00:48:38.594Z,8.77
2023-01-24T00:51:07.131Z,8.37
2023-01-24T00:53:35.071Z,9.00
2023-01-24T00:56:03.041Z,9.00
2023-01-24T00:58:30.932Z,7.97
2023-01-24T01:01:01.297Z,8.07
2023-01-24T01:03:29.233Z,8.90
2023-01-24T01:06:02.846Z,7.73
2023-01-24T01:08:30.658Z,8.80
2023-01-24T01:10:58.791Z,8.20
2023-01-24T01:13:27.418Z,8.27
2023-01-24T01:16:02.487Z,7.80
2023-01-24T01:18:30.157Z,8.87
2023-01-24T01:20:58.026Z,7.93
2023-01-24T01:23:27.170Z,9.00
2023-01-24T01:25:54.998Z,8.00
2023-01-24T01:28:22.719Z,8.53
2023-01-24T01:30:54.900Z,8.77
2023-01-24T01:33:23.020Z,8.53
2023-01-24T01:35:51.488Z,8.47
2023-01-24T01:38:19.697Z,9.73
2023-01-24T01:40:49.018Z,8.50
2023-01-24T01:43:18.124Z,9.43
2023-01-24T01:45:47.622Z,9.10
2023-01-24T01:48:22.590Z,8.53
2023-01-24T01:50:56.789Z,8.83
2023-01-24T01:53:29.167Z,8.50
2023-01-24T01:56:03.899Z,9.37
2023-01-24T01:58:32.171Z,9.13
2023-01-24T02:01:00.430Z,8.73
2023-01-24T02:03:40.475Z,9.80
2023-01-24T02:06:17.128Z,9.73
2023-01-24T02:08:46.739Z,9.80
2023-01-24T02:11:33.940Z,9.13
2023-01-24T02:14:19.894Z,9.43
2023-01-24T02:16:47.718Z,9.63
2023-01-24T02:19:30.175Z,9.83
2023-01-24T02:22:04.038Z,8.67
2023-01-24T02:24:39.106Z,8.73
2023-01-24T02:27:08.178Z,8.57
2023-01-24T02:29:36.287Z,8.73
2023-01-24T02:32:08.492Z,9.47
2023-01-24T02:34:36.227Z,9.73
2023-01-24T02:37:07.722Z,9.47
2023-01-24T02:39:43.165Z,9.43
2023-01-24T02:42:15.214Z,8.83
2023-01-24T02:44:47.069Z,8.33
2023-01-24T02:47:15.092Z,8.83
2023-01-24T02:49:42.855Z,9.03
2023-01-24T02:52:28.862Z,9.83
2023-01-24T02:54:56.563Z,9.00
2023-01-24T02:57:43.571Z,8.87
2023-01-24T03:00:12.564Z,8.20
2023-01-24T03:02:40.403Z,8.77
2023-01-24T03:05:08.438Z,9.33
2023-01-24T03:07:45.233Z,8.23
2023-01-24T03:10:14.758Z,8.33
2023-01-24T03:13:01.660Z,8.07
2023-01-24T03:15:47.058Z,8.93
2023-01-24T03:18:32.894Z,8.30
2023-01-24T03:21:18.270Z,9.47
2023-01-24T03:24:03.693Z,8.47
2023-01-24T03:26:49.306Z,8.50
2023-01-24T03:29:35.822Z,8.07
2023-01-24T03:32:21.332Z,9.63
2023-01-24T03:34:50.955Z,8.73
2023-01-24T03:37:39.985Z,8.73
2023-01-24T03:40:09.467Z,8.30
2023-01-24T03:42:47.792Z,9.33
2023-01-24T03:45:18.402Z,9.17
2023-01-24T03:47:55.221Z,8.87
2023-01-24T03:50:41.863Z,9.80
2023-01-24T03:53:10.308Z,9.53
2023-01-24T03:55:38.015Z,8.73
2023-01-24T03:58:06.718Z,8.57
2023-01-24T04:00:36.665Z,9.67
2023-01-24T04:03:04.469Z,9.80
2023-01-24T04:05:33.874Z,9.53
2023-01-24T04:08:01.687Z,9.73
2023-01-24T04:10:29.417Z,10.17
2023-01-24T04:12:57.730Z,9.77
2023-01-24T04:15:27.232Z,10.83
2023-01-24T04:17:58.616Z,9.57
2023-01-24T04:20:27.461Z,8.30
2023-01-24T04:22:55.333Z,8.83
2023-01-24T04:25:24.340Z,9.00
2023-01-24T04:27:52.312Z,9.50
2023-01-24T04:30:20.174Z,8.57
2023-01-24T04:32:47.885Z,9.00
2023-01-24T04:35:21.160Z,9.10
2023-01-24T04:37:49.130Z,9.70
2023-01-24T04:40:17.625Z,9.30
2023-01-24T04:42:45.480Z,9.80
2023-01-24T04:45:13.606Z,9.50
2023-01-24T04:47:41.482Z,8.80
2023-01-24T04:50:10.498Z,9.47
2023-01-24T04:52:39.759Z,10.10
2023-01-24T04:55:08.272Z,10.00
2023-01-24T04:57:36.278Z,9.63
2023-01-24T05:00:05.325Z,10.33
2023-01-24T05:02:33.623Z,9.10
2023-01-24T05:05:01.443Z,10.37
2023-01-24T05:07:29.124Z,9.93
2023-01-24T05:09:58.135Z,9.07
2023-01-24T05:12:25.831Z,8.70
2023-01-24T05:14:53.468Z,9.83
2023-01-24T05:17:21.142Z,9.77
2023-01-24T05:19:48.839Z,9.93
2023-01-24T05:22:16.513Z,9.20
2023-01-24T05:24:44.331Z,9.67
2023-01-24T05:27:13.498Z,9.47
2023-01-24T05:29:41.222Z,8.77
2023-01-24T05:32:08.934Z,9.80
2023-01-24T05:34:36.947Z,9.27
2023-01-24T05:37:04.633Z,8.60
2023-01-24T05:39:34.985Z,9.23
2023-01-24T05:42:02.735Z,9.10
2023-01-24T05:44:31.783Z,8.53
2023-01-24T05:46:59.499Z,9.53
2023-01-24T05:49:27.282Z,9.10
2023-01-24T05:51:54.968Z,10.30
2023-01-24T05:54:22.664Z,10.30
2023-01-24T05:56:50.446Z,9.53
2023-01-24T05:59:18.316Z,9.40
2023-01-24T06:01:50.311Z,9.50
2023-01-24T06:04:17.997Z,9.37
2023-01-24T06:06:45.721Z,9.93
2023-01-24T06:09:13.475Z,9.33
2023-01-24T06:11:41.154Z,9.50
2023-01-24T06:14:08.847Z,9.20
2023-01-24T06:16:36.539Z,9.23
2023-01-24T06:19:06.091Z,8.80
2023-01-24T06:21:45.264Z,9.77
2023-01-24T06:24:19.014Z,9.67
2023-01-24T06:26:47.901Z,9.00
2023-01-24T06:29:16.327Z,9.33
2023-01-24T06:31:52.211Z,9.00
2023-01-24T06:34:34.338Z,9.37
2023-01-24T06:37:13.792Z,8.67
2023-01-24T06:39:50.493Z,9.13
2023-01-24T06:42:19.025Z,8.80
2023-01-24T06:44:46.905Z,8.70
2023-01-24T06:47:15.075Z,8.17
2023-01-24T06:49:44.626Z,8.77
2023-01-24T06:52:13.944Z,9.00
2023-01-24T06:54:41.724Z,9.00
2023-01-24T06:57:09.693Z,8.80
2023-01-24T06:59:37.459Z,8.50
2023-01-24T07:02:05.209Z,9.23
2023-01-24T07:04:32.933Z,9.57
2023-01-24T07:07:01.997Z,9.47
2023-01-24T07:09:29.784Z,9.63
2023-01-24T07:11:59.244Z,9.53
2023-01-24T07:14:27.584Z,9.93
2023-01-24T07:16:56.710Z,8.97
2023-01-24T07:19:26.842Z,9.60
2023-01-24T07:21:57.685Z,9.17
2023-01-24T07:24:30.324Z,8.90
2023-01-24T07:26:58.981Z,9.00
2023-01-24T07:29:26.952Z,8.53
2023-01-24T07:31:55.156Z,9.37
2023-01-24T07:34:23.369Z,9.23
2023-01-24T07:36:51.168Z,9.47
2023-01-24T07:39:19.134Z,9.60
2023-01-24T07:41:48.285Z,9.27
2023-01-24T07:44:16.019Z,7.93
2023-01-24T07:46:44.178Z,9.03
2023-01-24T07:49:11.936Z,9.50
2023-01-24T07:51:40.812Z,9.93
2023-01-24T07:54:10.458Z,9.30
2023-01-24T07:56:38.299Z,9.23
2023-01-24T07:59:07.777Z,8.93
2023-01-24T08:01:35.535Z,8.80
2023-01-24T08:04:03.292Z,9.97
2023-01-24T08:06:31.270Z,8.93
2023-01-24T08:08:59.091Z,8.87
2023-01-24T08:11:26.878Z,9.20
2023-01-24T08:13:55.852Z,9.03
2023-01-24T08:16:27.007Z,8.30
2023-01-24T08:18:54.964Z,8.37
2023-01-24T08:21:22.828Z,9.53
2023-01-24T08:23:50.647Z,9.57
2023-01-24T08:26:18.439Z,8.17
2023-01-24T08:28:46.783Z,9.13
2023-01-24T08:31:14.596Z,9.10
2023-01-24T08:33:43.880Z,8.97
2023-01-24T08:36:11.660Z,8.30
2023-01-24T08:38:39.490Z,9.60
2023-01-24T08:41:09.439Z,8.70
2023-01-24T08:43:37.330Z,8.83
2023-01-24T08:46:06.053Z,8.70
2023-01-24T08:48:33.843Z,8.57
2023-01-24T08:51:08.650Z,8.83
2023-01-24T08:53:36.395Z,9.30
2023-01-24T08:56:04.387Z,8.07
2023-01-24T08:58:34.272Z,8.60
2023-01-24T09:01:02.498Z,9.00
2023-01-24T09:03:30.310Z,8.23
2023-01-24T09:05:59.263Z,8.40
2023-01-24T09:08:29.131Z,8.53
2023-01-24T09:10:59.838Z,8.97
2023-01-24T09:13:28.381Z,8.47
2023-01-24T09:15:56.156Z,7.77
2023-01-24T09:18:25.078Z,7.87
2023-01-24T09:20:52.786Z,8.33
2023-01-24T09:23:20.529Z,7.87
2023-01-24T09:25:54.189Z,8.23
2023-01-24T09:28:22.590Z,7.63
2023-01-24T09:30:50.858Z,8.27
2023-01-24T09:33:19.814Z,8.90
2023-01-24T09:35:53.841Z,8.10
2023-01-24T09:38:23.797Z,7.67
2023-01-24T09:41:03.125Z,7.70
2023-01-24T09:43:44.392Z,7.53
2023-01-24T09:46:20.601Z,8.17
2023-01-24T09:48:50.259Z,7.90
2023-01-24T09:51:22.057Z,7.80
2023-01-24T09:53:53.913Z,7.80
2023-01-24T09:56:31.666Z,8.20
2023-01-24T09:59:15.415Z,8.07
2023-01-24T10:01:43.267Z,7.80
2023-01-24T10:04:16.844Z,7.73
2023-01-24T10:06:56.901Z,8.53
2023-01-24T10:09:34.537Z,7.47
2023-01-24T10:12:15.636Z,8.13
2023-01-24T10:14:56.825Z,7.10
2023-01-24T10:17:46.891Z,7.77
2023-01-24T10:20:39.635Z,7.27
2023-01-24T10:23:15.018Z,8.03
2023-01-24T10:25:52.848Z,7.63
2023-01-24T10:28:26.815Z,7.27
2023-01-24T10:31:03.548Z,7.80
2023-01-24T10:33:37.139Z,8.10
2023-01-24T10:36:11.198Z,7.20
2023-01-24T10:38:39.815Z,7.37
2023-01-24T10:41:20.688Z,7.87
2023-01-24T10:43:56.217Z,7.40
2023-01-24T10:46:45.907Z,7.10
2023-01-24T10:49:21.072Z,6.97
2023-01-24T10:52:10.892Z,7.27
2023-01-24T10:54:47.657Z,6.67
2023-01-24T10:57:31.028Z,7.40
2023-01-24T11:00:07.504Z,6.80
2023-01-24T11:02:36.136Z,7.07
2023-01-24T11:05:06.687Z,7.17
2023-01-24T11:07:39.708Z,6.60
2023-01-24T11:10:19.786Z,6.73
2023-01-24T11:12:56.369Z,7.27
2023-01-24T11:15:30.183Z,7.30
2023-01-24T11:18:00.078Z,6.27
2023-01-24T11:20:32.779Z,6.43
2023-01-24T11:23:05.899Z,7.30
2023-01-24T11:25:33.882Z,6.70
2023-01-24T11:28:01.702Z,7.23
2023-01-24T11:30:35.266Z,7.17
2023-01-24T11:33:43.292Z,7.07
2023-01-24T11:36:26.384Z,6.20
2023-01-24T11:38:58.870Z,6.70
2023-01-24T11:41:34.001Z,6.77
2023-01-24T11:44:29.875Z,7.53
2023-01-24T11:47:08.645Z,7.10
2023-01-24T11:49:56.941Z,7.03
2023-01-24T11:52:55.110Z,7.37
2023-01-24T11:55:45.079Z,6.87
2023-01-24T11:58:26.997Z,6.50
2023-01-24T12:01:00.648Z,6.73
2023-01-24T12:04:00.038Z,6.17
2023-01-24T12:06:39.183Z,6.47
2023-01-24T12:09:26.752Z,7.73
2023-01-24T12:12:02.509Z,6.97
2023-01-24T12:14:58.872Z,6.87
2023-01-24T12:17:41.413Z,6.47
2023-01-24T12:20:32.073Z,7.00
2023-01-24T12:23:07.762Z,7.37
2023-01-24T12:25:38.489Z,6.50
2023-01-24T12:28:08.601Z,7.20
2023-01-24T12:30:42.023Z,7.30
2023-01-24T12:33:19.453Z,7.00
2023-01-24T12:35:51.436Z,7.33
2023-01-24T12:38:23.240Z,7.67
2023-01-24T12:40:56.865Z,6.77
2023-01-24T12:43:33.972Z,7.90
2023-01-24T12:46:11.089Z,7.10
2023-01-24T12:48:44.802Z,6.23
2023-01-24T12:51:23.354Z,7.20
2023-01-24T12:54:11.833Z,6.53
2023-01-24T12:56:49.594Z,6.43
2023-01-24T12:59:24.565Z,6.83
2023-01-24T13:02:21.060Z,6.80
2023-01-24T13:04:59.202Z,6.77
2023-01-24T13:07:40.783Z,6.77
2023-01-24T13:10:19.327Z,6.37
2023-01-24T13:12:48.789Z,7.73
2023-01-24T13:15:20.703Z,7.23
2023-01-24T13:18:00.683Z,7.07
2023-01-24T13:20:41.502Z,7.13
2023-01-24T13:23:28.802Z,6.10
2023-01-24T13:26:19.536Z,6.80
2023-01-24T13:29:01.875Z,7.00
2023-01-24T13:31:32.428Z,7.20
2023-01-24T13:34:04.149Z,6.47
2023-01-24T13:36:35.705Z,6.67
2023-01-24T13:39:05.930Z,7.03
2023-01-24T13:41:35.950Z,7.53
2023-01-24T13:44:05.467Z,7.60
2023-01-24T13:46:58.829Z,7.90
2023-01-24T13:49:41.721Z,7.80
2023-01-24T13:53:00.324Z,7.73
2023-01-24T13:55:58.584Z,7.00
2023-01-24T13:58:29.206Z,7.40
2023-01-24T14:01:00.409Z,7.23
2023-01-24T14:03:35.109Z,7.20
2023-01-24T14:06:13.146Z,7.00
2023-01-24T14:08:49.705Z,7.40
2023-01-24T14:11:24.810Z,7.30
2023-01-24T14:14:00.497Z,6.80
2023-01-24T14:17:12.493Z,7.60
2023-01-24T14:19:40.528Z,6.67
2023-01-24T14:22:22.895Z,7.23
2023-01-24T14:24:56.406Z,7.67
2023-01-24T14:27:30.232Z,7.63
2023-01-24T14:30:12.863Z,8.23
2023-01-24T14:32:47.875Z,6.87
2023-01-24T14:35:21.500Z,7.33
2023-01-24T14:37:51.178Z,7.43
2023-01-24T14:40:23.746Z,8.17
2023-01-24T14:42:54.903Z,6.60
2023-01-24T14:45:27.377Z,7.70
2023-01-24T14:47:55.821Z,7.17
2023-01-24T14:50:26.686Z,7.40
2023-01-24T14:52:54.557Z,7.97
2023-01-24T14:55:34.677Z,7.53
2023-01-24T14:58:21.422Z,7.60
2023-01-24T15:00:51.887Z,7.13
2023-01-24T15:03:23.242Z,7.67
2023-01-24T15:05:57.783Z,7.13
2023-01-24T15:08:26.530Z,7.80
2023-01-24T15:10:57.879Z,7.80
2023-01-24T15:13:30.892Z,8.03
2023-01-24T15:16:00.937Z,8.17
2023-01-24T15:18:43.088Z,7.80
2023-01-24T15:21:28.353Z,7.90
2023-01-24T15:23:59.537Z,7.97
2023-01-24T15:26:37.957Z,7.57
2023-01-24T15:29:48.634Z,8.17
2023-01-24T15:32:29.924Z,7.87
2023-01-24T15:35:22.887Z,7.37
2023-01-24T15:38:11.221Z,7.43
2023-01-24T15:40:48.321Z,7.17
2023-01-24T15:43:37.645Z,7.33
2023-01-24T15:46:23.991Z,7.80
2023-01-24T15:49:00.593Z,7.93
2023-01-24T15:51:34.830Z,8.07
2023-01-24T15:54:04.057Z,7.47
2023-01-24T15:56:35.348Z,7.43
2023-01-24T15:59:03.413Z,6.80
2023-01-24T16:01:31.645Z,7.97
2023-01-24T16:04:14.774Z,8.40
2023-01-24T16:06:43.155Z,7.30
2023-01-24T16:09:11.277Z,7.77
2023-01-24T16:11:39.739Z,7.77
2023-01-24T16:14:08.969Z,7.83
2023-01-24T16:16:37.343Z,7.87
2023-01-24T16:19:15.341Z,7.83
2023-01-24T16:21:43.063Z,7.83
2023-01-24T16:24:11.013Z,7.83
2023-01-24T16:26:41.030Z,8.20
2023-01-24T16:29:15.463Z,7.77
2023-01-24T16:31:43.413Z,8.03
2023-01-24T16:34:12.655Z,7.50
2023-01-24T16:36:41.833Z,7.37
2023-01-24T16:39:12.206Z,7.87
2023-01-24T16:41:46.644Z,7.13
2023-01-24T16:44:15.344Z,7.50
2023-01-24T16:46:52.394Z,7.10
2023-01-24T16:49:22.423Z,7.57
2023-01-24T16:51:53.618Z,7.17
2023-01-24T16:54:42.161Z,7.87
2023-01-24T16:57:10.102Z,8.50
2023-01-24T16:59:40.585Z,7.67
2023-01-24T17:02:08.541Z,7.67
2023-01-24T17:04:37.709Z,7.60
2023-01-24T17:07:05.345Z,7.13
2023-01-24T17:09:34.412Z,6.90
2023-01-24T17:12:13.646Z,7.67
2023-01-24T17:14:43.730Z,7.37
2023-01-24T17:17:11.754Z,7.90
2023-01-24T17:19:40.847Z,7.70
2023-01-24T17:22:08.732Z,7.40
2023-01-24T17:24:37.591Z,8.30
2023-01-24T17:27:05.346Z,7.93
2023-01-24T17:29:33.114Z,8.20
2023-01-24T17:32:01.022Z,7.70
2023-01-24T17:34:28.923Z,8.13
2023-01-24T17:36:58.133Z,8.00
2023-01-24T17:39:25.888Z,7.30
2023-01-24T17:41:53.581Z,7.87
2023-01-24T17:44:22.388Z,7.87
2023-01-24T17:46:50.391Z,8.17
2023-01-24T17:49:18.397Z,8.77
2023-01-24T17:51:47.364Z,8.10
2023-01-24T17:54:16.808Z,7.93
2023-01-24T17:56:44.764Z,8.13
2023-01-24T17:59:12.590Z,8.07
2023-01-24T18:01:40.318Z,8.03
2023-01-24T18:04:08.156Z,8.13
2023-01-24T18:06:36.297Z,7.80
2023-01-24T18:09:04.083Z,7.83
2023-01-24T18:11:33.194Z,7.43
2023-01-24T18:14:01.010Z,8.03
2023-01-24T18:16:28.783Z,8.20
2023-01-24T18:18:56.688Z,8.77
2023-01-24T18:21:26.650Z,8.07
2023-01-24T18:23:56.085Z,8.67
2023-01-24T18:26:24.745Z,7.90
2023-01-24T18:28:54.164Z,8.73
2023-01-24T18:31:21.938Z,8.33
2023-01-24T18:33:49.746Z,8.27
2023-01-24T18:36:20.005Z,8.20
2023-01-24T18:38:49.166Z,8.43
2023-01-24T18:41:17.069Z,8.33
2023-01-24T18:43:44.874Z,8.07
2023-01-24T18:46:15.050Z,8.17
2023-01-24T18:48:44.833Z,8.33
2023-01-24T18:51:14.622Z,8.03
2023-01-24T18:53:42.921Z,7.90
2023-01-24T18:56:11.298Z,8.20
2023-01-24T18:58:40.011Z,8.03
2023-01-24T19:03:41.751Z,8.27
2023-01-24T19:06:10.890Z,9.10
2023-01-24T19:08:52.113Z,9.17
2023-01-24T19:11:20.208Z,7.40
2023-01-24T19:13:47.931Z,9.10
2023-01-24T19:16:17.202Z,8.33
2023-01-24T19:18:47.072Z,7.73
2023-01-24T19:21:15.850Z,7.80
2023-01-24T19:23:47.579Z,9.00
2023-01-24T19:26:16.871Z,8.37
2023-01-24T19:28:45.024Z,7.60
2023-01-24T19:31:12.872Z,8.03
2023-01-24T19:33:41.952Z,8.27
2023-01-24T19:36:10.968Z,8.60
2023-01-24T19:38:38.705Z,8.40
2023-01-24T19:41:08.601Z,8.00
2023-01-24T19:43:37.641Z,8.20
2023-01-24T19:46:11.421Z,9.07
2023-01-24T19:48:40.048Z,7.70
2023-01-24T19:51:11.423Z,8.40
2023-01-24T19:53:39.838Z,8.60
2023-01-24T19:56:09.766Z,7.60
2023-01-24T19:58:37.529Z,8.70
2023-01-24T20:01:07.293Z,8.50
2023-01-24T20:03:35.409Z,9.23
2023-01-24T20:06:09.371Z,8.50
2023-01-24T20:08:37.176Z,8.37
2023-01-24T20:11:07.039Z,8.27
2023-01-24T20:13:35.021Z,8.60
2023-01-24T20:16:07.536Z,8.97
2023-01-24T20:18:35.721Z,8.80
2023-01-24T20:21:03.485Z,9.20
2023-01-24T20:23:32.743Z,9.27
2023-01-24T20:26:04.162Z,8.83
2023-01-24T20:28:32.075Z,9.83
2023-01-24T20:31:03.830Z,8.93
2023-01-24T20:33:32.252Z,7.83
2023-01-24T20:36:02.098Z,8.80
2023-01-24T20:38:37.205Z,8.67
2023-01-24T20:41:09.532Z,9.37
2023-01-24T20:43:38.197Z,9.50
2023-01-24T20:46:07.957Z,9.37
2023-01-24T20:48:38.307Z,8.67
2023-01-24T20:51:07.891Z,8.57
2023-01-24T20:53:36.072Z,9.20
2023-01-24T20:56:05.539Z,8.37
2023-01-24T20:58:35.231Z,8.50
2023-01-24T21:01:04.989Z,9.47
2023-01-24T21:03:32.868Z,8.87
2023-01-24T21:06:05.301Z,9.43
2023-01-24T21:08:36.368Z,9.37
2023-01-24T21:11:04.873Z,9.53
2023-01-24T21:13:42.670Z,8.97
2023-01-24T21:16:12.020Z,9.27
2023-01-24T21:18:40.437Z,10.17
2023-01-24T21:21:08.993Z,9.83
2023-01-24T21:23:37.323Z,9.27
2023-01-24T21:26:07.469Z,9.37
2023-01-24T21:28:36.940Z,9.23
2023-01-24T21:31:07.132Z,9.47
2023-01-24T21:33:35.205Z,9.20
2023-01-24T21:36:04.129Z,10.17
2023-01-24T21:38:33.025Z,8.93
2023-01-24T21:41:18.606Z,10.30
2023-01-24T21:43:47.823Z,10.30
2023-01-24T21:46:15.829Z,9.27
2023-01-24T21:49:01.787Z,9.80
2023-01-24T21:51:30.664Z,10.07
2023-01-24T21:54:06.437Z,9.87
2023-01-24T21:56:53.559Z,10.27
2023-01-24T21:59:24.236Z,10.50
2023-01-24T22:01:55.845Z,10.40
2023-01-24T22:04:25.176Z,10.20
2023-01-24T22:06:53.528Z,9.40
2023-01-24T22:09:21.384Z,9.90
2023-01-24T22:11:49.521Z,9.50
2023-01-24T22:14:20.349Z,9.77
2023-01-24T22:16:52.308Z,9.30
2023-01-24T22:19:22.882Z,9.47
2023-01-24T22:22:19.888Z,9.07
2023-01-24T22:25:00.295Z,8.33
2023-01-24T22:27:28.425Z,9.20
2023-01-24T22:29:57.280Z,9.07
2023-01-24T22:32:27.183Z,9.50
2023-01-24T22:34:57.794Z,8.67
2023-01-24T22:37:29.072Z,9.87
2023-01-24T22:39:57.648Z,10.00
2023-01-24T22:42:25.547Z,9.73
2023-01-24T22:44:53.755Z,10.00
2023-01-24T22:47:21.878Z,9.40
2023-01-24T22:49:51.060Z,10.33
2023-01-24T22:52:18.769Z,10.13
2023-01-24T22:54:46.516Z,10.67
2023-01-24T22:57:14.197Z,10.27
2023-01-24T22:59:41.905Z,10.67
2023-01-24T23:02:09.786Z,10.00
2023-01-24T23:04:37.545Z,9.57
2023-01-24T23:07:06.967Z,10.77
2023-01-24T23:09:34.696Z,10.20
2023-01-24T23:12:02.396Z,9.87
2023-01-24T23:14:47.696Z,10.77
2023-01-24T23:17:16.237Z,10.30
2023-01-24T23:20:03.418Z,9.80
2023-01-24T23:22:34.646Z,10.27
2023-01-24T23:25:02.995Z,10.70
2023-01-24T23:27:34.399Z,10.53
2023-01-24T23:30:24.516Z,9.50
2023-01-24T23:32:55.982Z,10.40
2023-01-24T23:35:23.673Z,9.63
2023-01-24T23:37:52.912Z,9.17
2023-01-24T23:40:20.760Z,9.97
2023-01-24T23:42:48.561Z,10.20
2023-01-24T23:45:18.617Z,9.07
2023-01-24T23:47:46.833Z,8.83
2023-01-24T23:50:14.793Z,8.20
2023-01-24T23:52:42.553Z,9.40
2023-01-24T23:55:11.943Z,9.30
2023-01-24T23:57:39.604Z,9.37
